Accueil
METAR-TAF:

METAR-TAF

Aéroports :

Altenstadt, Allemagne

latitude: 47-50N, longitude: 010-52E, altitude: 739 m

Observation

Le bulletin a été fait il y a 44 minutes, à 00:20 UTC
Vent 3 kt de sud-ouest
Température 8°C
Humidité 71%
Pression 1030 hPa

METAR: ETHA 280020Z AUTO 23003KT //// // ////// 08/03 Q1030 ///

Heure: 03:04 (01:04 UTC)

Prévision

Le bulletin a été fait il y a 7 heures et 41 minutes, à 17:23 UTC
Prévision valable du 27 à 14 UTC au 27 à 23 UTC
Vent 8 kt de est/nord-est avec des rafales jusqu'à 18 kt
Visibilité 10 km ou plus
Quelques nuages à une hauteur de 5000 ft
Evoluant progressivement
du 27 à 17 UTC au 27 à 19 UTC
Vent 7 kt de nord-est
Visibilité: 1800 m
Quelques nuages à une hauteur de 5000 ft
Nuages fragmentés à une hauteur de 26000 ft

TAF: ETHA 271723Z 2714/2723 07008G18KT 9999 NSW FEW050 BECMG 2717/2719 05007KT 9999 NSW FEW050 BKN260 CANCEL 1800

Observations et prévisions météorologiques de plus de 4000 aéroports (messages METAR et TAF).

Les stations disponibles sont représentées par des disques jaunes et rouges sur la carte.

Passer la souris dessus pour voir le nom de la station.

Cliquer dessus pour voir les observations et prévisions météorologiques.

Pour changer de carte: cliquez sur les boutons verts avec une croix noire pour zoomer, sur le bouton vert avec un tiret pour effectuer un zoom arrière, ou sur les flèches vertes pour les cartes adjacentes.


METAR-TAF: